createdAt,value
2023-05-24T00:02:24.065Z,16.80
2023-05-24T00:04:53.184Z,16.80
2023-05-24T00:07:20.723Z,16.70
2023-05-24T00:09:47.797Z,16.70
2023-05-24T00:12:14.787Z,16.60
2023-05-24T00:14:41.856Z,16.60
2023-05-24T00:17:08.946Z,16.60
2023-05-24T00:19:38.573Z,16.60
2023-05-24T00:22:05.917Z,16.50
2023-05-24T00:24:33.025Z,16.50
2023-05-24T00:27:00.134Z,16.50
2023-05-24T00:29:27.180Z,16.40
2023-05-24T00:31:54.324Z,16.50
2023-05-24T00:34:21.436Z,16.40
2023-05-24T00:36:48.487Z,16.40
2023-05-24T00:39:15.646Z,16.30
2023-05-24T00:41:42.697Z,16.30
2023-05-24T00:44:11.292Z,16.40
2023-05-24T00:46:38.969Z,16.30
2023-05-24T00:49:06.242Z,16.30
2023-05-24T00:51:34.161Z,16.20
2023-05-24T00:54:01.449Z,16.20
2023-05-24T00:56:29.179Z,16.20
2023-05-24T00:58:56.546Z,16.20
2023-05-24T01:01:26.067Z,16.30
2023-05-24T01:03:54.666Z,16.30
2023-05-24T01:06:23.632Z,16.20
2023-05-24T01:09:23.375Z,16.30
2023-05-24T01:12:18.107Z,16.30
2023-05-24T01:15:17.863Z,16.40
2023-05-24T01:18:01.929Z,16.40
2023-05-24T01:20:32.544Z,16.40
2023-05-24T01:23:11.811Z,16.30
2023-05-24T01:26:06.053Z,16.30
2023-05-24T01:28:35.109Z,16.30
2023-05-24T01:31:04.073Z,16.30
2023-05-24T01:33:31.187Z,16.20
2023-05-24T01:35:58.257Z,16.20
2023-05-24T01:38:25.320Z,16.20
2023-05-24T01:41:01.394Z,16.10
2023-05-24T01:43:41.501Z,16.10
2023-05-24T01:46:25.540Z,16.10
2023-05-24T01:49:03.918Z,16.00
2023-05-24T01:51:44.984Z,15.90
2023-05-24T01:54:15.207Z,15.80
2023-05-24T01:56:44.668Z,15.80
2023-05-24T01:59:15.013Z,15.60
2023-05-24T02:01:42.311Z,15.50
2023-05-24T02:04:09.416Z,15.50
2023-05-24T02:06:36.470Z,15.40
2023-05-24T02:09:03.549Z,15.30
2023-05-24T02:11:30.628Z,15.30
2023-05-24T02:13:57.698Z,15.20
2023-05-24T02:16:26.992Z,15.10
2023-05-24T02:18:54.233Z,15.10
2023-05-24T02:21:21.357Z,15.00
2023-05-24T02:23:48.435Z,15.00
2023-05-24T02:26:17.888Z,15.00
2023-05-24T02:28:45.221Z,15.00
2023-05-24T02:31:12.351Z,15.00
2023-05-24T02:33:40.149Z,14.90
2023-05-24T02:36:07.361Z,14.90
2023-05-24T02:38:34.503Z,14.90
2023-05-24T02:41:01.557Z,14.90
2023-05-24T02:43:28.601Z,15.00
2023-05-24T02:45:55.785Z,15.00
2023-05-24T02:48:22.896Z,15.10
2023-05-24T02:50:49.953Z,15.10
2023-05-24T02:53:17.062Z,15.10
2023-05-24T02:55:44.310Z,15.10
2023-05-24T02:58:12.329Z,15.00
2023-05-24T03:00:39.516Z,15.10
2023-05-24T03:03:06.719Z,15.20
2023-05-24T03:05:33.955Z,15.20
2023-05-24T03:08:01.093Z,15.20
2023-05-24T03:10:28.283Z,15.30
2023-05-24T03:12:55.384Z,15.30
2023-05-24T03:15:22.454Z,15.30
2023-05-24T03:17:49.602Z,15.30
2023-05-24T03:20:17.902Z,15.30
2023-05-24T03:22:45.015Z,15.30
2023-05-24T03:25:12.144Z,15.30
2023-05-24T03:27:39.196Z,15.30
2023-05-24T03:30:07.392Z,15.20
2023-05-24T03:32:34.446Z,15.20
2023-05-24T03:35:01.740Z,15.20
2023-05-24T03:37:28.884Z,15.20
2023-05-24T03:39:55.995Z,15.20
2023-05-24T03:42:23.147Z,15.30
2023-05-24T03:44:50.189Z,15.30
2023-05-24T03:47:17.297Z,15.30
2023-05-24T03:49:44.655Z,15.30
2023-05-24T03:52:12.151Z,15.30
2023-05-24T03:54:39.245Z,15.30
2023-05-24T03:57:07.287Z,15.40
2023-05-24T03:59:34.487Z,15.40
2023-05-24T04:02:01.615Z,15.50
2023-05-24T04:04:28.806Z,15.50
2023-05-24T04:06:56.395Z,15.60
2023-05-24T04:09:24.111Z,15.60
2023-05-24T04:11:51.954Z,15.70
2023-05-24T04:14:19.041Z,15.70
2023-05-24T04:16:46.187Z,15.80
2023-05-24T04:19:13.294Z,15.80
2023-05-24T04:21:41.031Z,15.90
2023-05-24T04:24:08.241Z,15.90
2023-05-24T04:26:35.465Z,16.00
2023-05-24T04:29:03.797Z,16.10
2023-05-24T04:31:33.490Z,16.20
2023-05-24T04:34:01.083Z,16.20
2023-05-24T04:36:29.160Z,16.30
2023-05-24T04:38:57.670Z,16.40
2023-05-24T04:41:24.888Z,16.60
2023-05-24T04:43:52.031Z,16.70
2023-05-24T04:46:19.105Z,16.80
2023-05-24T04:48:46.259Z,16.90
2023-05-24T04:51:13.279Z,17.00
2023-05-24T04:53:40.249Z,17.00
2023-05-24T04:56:07.373Z,17.00
2023-05-24T04:58:35.923Z,17.00
2023-05-24T05:01:04.163Z,17.00
2023-05-24T05:03:31.409Z,17.10
2023-05-24T05:05:58.531Z,17.40
2023-05-24T05:08:25.613Z,17.40
2023-05-24T05:10:52.760Z,17.30
2023-05-24T05:13:19.757Z,17.30
2023-05-24T05:15:46.816Z,17.30
2023-05-24T05:18:13.898Z,17.40
2023-05-24T05:20:41.378Z,17.50
2023-05-24T05:23:09.160Z,17.40
2023-05-24T05:25:36.272Z,17.40
2023-05-24T05:28:03.366Z,17.30
2023-05-24T05:30:30.519Z,17.30
2023-05-24T05:32:57.920Z,17.30
2023-05-24T05:35:25.113Z,17.10
2023-05-24T05:37:52.266Z,17.10
2023-05-24T05:40:19.346Z,17.20
2023-05-24T05:42:47.693Z,17.20
2023-05-24T05:45:14.815Z,17.10
2023-05-24T05:47:42.022Z,17.00
2023-05-24T05:50:09.614Z,17.00
2023-05-24T05:52:37.260Z,17.00
2023-05-24T05:55:04.600Z,16.90
2023-05-24T05:57:31.608Z,17.00
2023-05-24T05:59:58.622Z,16.90
2023-05-24T06:02:25.848Z,16.90
2023-05-24T06:04:53.091Z,16.90
2023-05-24T06:07:20.382Z,16.80
2023-05-24T06:09:47.396Z,16.80
2023-05-24T06:12:14.458Z,16.80
2023-05-24T06:14:41.491Z,16.80
2023-05-24T06:17:09.743Z,16.80
2023-05-24T06:19:36.857Z,16.70
2023-05-24T06:22:04.218Z,16.80
2023-05-24T06:24:31.307Z,16.70
2023-05-24T06:26:58.856Z,16.70
2023-05-24T06:29:26.084Z,16.70
2023-05-24T06:31:53.269Z,16.80
2023-05-24T06:34:23.714Z,16.80
2023-05-24T06:36:51.827Z,16.80
2023-05-24T06:39:19.185Z,16.80
2023-05-24T06:41:47.400Z,16.80
2023-05-24T06:44:14.887Z,16.90
2023-05-24T06:46:42.728Z,16.80
2023-05-24T06:49:10.153Z,16.90
2023-05-24T06:51:38.423Z,16.90
2023-05-24T06:54:06.088Z,16.90
2023-05-24T06:56:33.362Z,16.80
2023-05-24T06:59:00.717Z,16.90
2023-05-24T07:01:29.754Z,16.90
2023-05-24T07:03:57.146Z,16.90
2023-05-24T07:06:25.388Z,17.10
2023-05-24T07:08:52.591Z,17.20
2023-05-24T07:11:20.313Z,17.40
2023-05-24T07:13:47.535Z,17.40
2023-05-24T07:16:14.997Z,17.50
2023-05-24T07:18:42.346Z,17.40
2023-05-24T07:21:09.531Z,17.50
2023-05-24T07:23:37.891Z,17.60
2023-05-24T07:26:05.567Z,17.60
2023-05-24T07:28:33.103Z,17.60
2023-05-24T07:31:00.598Z,17.50
2023-05-24T07:33:27.823Z,17.40
2023-05-24T07:35:55.002Z,17.50
2023-05-24T07:38:22.554Z,17.60
2023-05-24T07:40:49.633Z,17.80
2023-05-24T07:43:16.997Z,18.00
2023-05-24T07:45:44.433Z,18.10
2023-05-24T07:48:11.942Z,18.20
2023-05-24T07:50:39.152Z,18.10
2023-05-24T07:53:06.467Z,18.10
2023-05-24T07:55:33.849Z,17.90
2023-05-24T07:58:01.559Z,18.10
2023-05-24T08:00:30.312Z,18.20
2023-05-24T08:02:57.637Z,18.30
2023-05-24T08:05:24.820Z,18.40
2023-05-24T08:07:53.584Z,18.30
2023-05-24T08:10:20.663Z,18.40
2023-05-24T08:12:47.946Z,18.60
2023-05-24T08:15:15.009Z,18.70
2023-05-24T08:17:42.075Z,18.70
2023-05-24T08:20:17.171Z,18.50
2023-05-24T08:22:44.469Z,18.40
2023-05-24T08:25:12.134Z,18.40
2023-05-24T08:27:39.200Z,18.30
2023-05-24T08:30:07.785Z,18.40
2023-05-24T08:32:35.334Z,18.40
2023-05-24T08:35:17.522Z,18.40
2023-05-24T08:37:48.304Z,18.40
2023-05-24T08:40:15.616Z,18.50
2023-05-24T08:42:43.075Z,18.70
2023-05-24T08:45:13.111Z,18.90
2023-05-24T08:47:41.278Z,19.00
2023-05-24T08:50:09.646Z,19.10
2023-05-24T08:52:37.234Z,19.10
2023-05-24T08:55:07.741Z,19.10
2023-05-24T08:57:39.600Z,19.00
2023-05-24T09:00:11.496Z,18.90
2023-05-24T09:02:45.578Z,19.00
2023-05-24T09:05:22.083Z,19.10
2023-05-24T09:07:53.062Z,19.40
2023-05-24T09:10:23.782Z,19.70
2023-05-24T09:12:57.849Z,19.90
2023-05-24T09:15:24.968Z,19.80
2023-05-24T09:17:52.136Z,19.70
2023-05-24T09:20:20.327Z,19.60
2023-05-24T09:22:52.327Z,19.60
2023-05-24T09:25:21.736Z,19.40
2023-05-24T09:27:51.090Z,19.60
2023-05-24T09:30:18.257Z,19.70
2023-05-24T09:32:57.449Z,19.80
2023-05-24T09:35:26.966Z,19.70
2023-05-24T09:38:00.266Z,19.70
2023-05-24T09:40:28.771Z,19.70
2023-05-24T09:43:10.240Z,19.80
2023-05-24T09:45:49.299Z,19.80
2023-05-24T09:48:17.509Z,19.80
2023-05-24T09:50:47.689Z,19.80
2023-05-24T09:53:19.227Z,19.80
2023-05-24T09:55:46.478Z,19.60
2023-05-24T09:58:14.006Z,19.60
2023-05-24T10:00:42.304Z,19.70
2023-05-24T10:03:11.995Z,19.80
2023-05-24T10:05:42.008Z,20.00
2023-05-24T10:08:10.131Z,20.10
2023-05-24T10:10:37.288Z,20.20
2023-05-24T10:13:04.961Z,20.40
2023-05-24T10:15:32.054Z,20.50
2023-05-24T10:18:01.981Z,20.80
2023-05-24T10:20:30.345Z,20.80
2023-05-24T10:23:03.780Z,20.70
2023-05-24T10:25:35.112Z,20.60
2023-05-24T10:28:08.969Z,20.60
2023-05-24T10:30:50.208Z,20.50
2023-05-24T10:33:18.537Z,20.40
2023-05-24T10:35:46.398Z,20.20
2023-05-24T10:38:13.583Z,20.30
2023-05-24T10:40:44.015Z,20.20
2023-05-24T10:43:11.276Z,20.40
2023-05-24T10:45:41.010Z,20.50
2023-05-24T10:48:14.244Z,20.50
2023-05-24T10:50:42.776Z,20.50
2023-05-24T10:53:17.212Z,20.50
2023-05-24T10:55:56.115Z,20.40
2023-05-24T10:58:55.557Z,20.60
2023-05-24T11:01:33.912Z,20.60
2023-05-24T11:04:17.116Z,20.80
2023-05-24T11:06:54.336Z,20.90
2023-05-24T11:09:21.966Z,20.90
2023-05-24T11:11:54.339Z,21.10
2023-05-24T11:14:24.791Z,21.50
2023-05-24T11:16:52.153Z,21.60
2023-05-24T11:19:37.465Z,21.50
2023-05-24T11:22:07.914Z,21.30
2023-05-24T11:24:35.373Z,21.10
2023-05-24T11:27:02.699Z,21.30
2023-05-24T11:29:31.007Z,21.20
2023-05-24T11:32:06.233Z,21.10
2023-05-24T11:34:34.549Z,21.30
2023-05-24T11:37:03.252Z,21.50
2023-05-24T11:39:35.659Z,21.50
2023-05-24T11:42:06.703Z,21.20
2023-05-24T11:44:34.716Z,21.20
2023-05-24T11:47:03.869Z,21.20
2023-05-24T11:49:31.018Z,21.20
2023-05-24T11:51:59.179Z,21.30
2023-05-24T11:54:28.381Z,21.30
2023-05-24T11:56:56.038Z,21.40
2023-05-24T11:59:27.933Z,21.30
2023-05-24T12:02:03.866Z,21.20
2023-05-24T12:04:32.479Z,21.10
2023-05-24T12:07:00.057Z,21.00
2023-05-24T12:09:28.769Z,21.20
2023-05-24T12:11:57.830Z,21.30
2023-05-24T12:14:33.032Z,21.30
2023-05-24T12:17:01.183Z,21.30
2023-05-24T12:19:36.049Z,21.40
2023-05-24T12:22:07.672Z,21.20
2023-05-24T12:24:35.625Z,21.20
2023-05-24T12:27:08.062Z,21.40
2023-05-24T12:29:41.575Z,21.30
2023-05-24T12:32:15.169Z,21.50
2023-05-24T12:34:44.162Z,21.60
2023-05-24T12:37:14.003Z,21.80
2023-05-24T12:39:43.801Z,22.00
2023-05-24T12:42:13.902Z,22.20
2023-05-24T12:44:42.094Z,21.70
2023-05-24T12:47:10.674Z,21.50
2023-05-24T12:49:37.929Z,21.50
2023-05-24T12:52:05.273Z,21.50
2023-05-24T12:54:32.506Z,21.70
2023-05-24T12:57:00.523Z,21.50
2023-05-24T12:59:28.868Z,21.50
2023-05-24T13:01:56.638Z,21.50
2023-05-24T13:04:26.620Z,21.60
2023-05-24T13:06:53.904Z,21.80
2023-05-24T13:09:23.461Z,22.00
2023-05-24T13:11:51.473Z,22.00
2023-05-24T13:14:20.040Z,22.00
2023-05-24T13:16:48.506Z,21.80
2023-05-24T13:19:15.660Z,21.80
2023-05-24T13:21:43.043Z,21.70
2023-05-24T13:24:10.267Z,21.50
2023-05-24T13:26:39.130Z,21.40
2023-05-24T13:31:41.236Z,21.40
2023-05-24T13:34:10.417Z,21.30
2023-05-24T13:36:38.335Z,21.20
2023-05-24T13:41:37.560Z,21.30
2023-05-24T13:44:04.973Z,21.30
2023-05-24T13:46:33.183Z,21.20
2023-05-24T13:49:00.272Z,21.10
2023-05-24T13:51:27.416Z,21.30
2023-05-24T13:53:55.752Z,21.30
2023-05-24T13:56:24.353Z,21.30
2023-05-24T13:58:52.569Z,21.40
2023-05-24T14:01:20.141Z,21.40
2023-05-24T14:03:47.165Z,21.30
2023-05-24T14:06:14.311Z,21.30
2023-05-24T14:08:41.539Z,21.20
2023-05-24T14:11:08.626Z,21.10
2023-05-24T14:16:06.756Z,21.10
2023-05-24T14:18:34.716Z,21.20
2023-05-24T14:21:01.846Z,21.10
2023-05-24T14:23:31.950Z,21.10
2023-05-24T14:25:59.907Z,21.00
2023-05-24T14:28:27.147Z,21.10
2023-05-24T14:30:54.192Z,21.20
2023-05-24T14:33:21.332Z,21.20
2023-05-24T14:35:48.555Z,21.20
2023-05-24T14:38:15.575Z,21.30
2023-05-24T14:40:42.767Z,21.30
2023-05-24T14:43:10.988Z,21.50
2023-05-24T14:45:39.832Z,21.50
2023-05-24T14:48:07.736Z,21.50
2023-05-24T14:50:34.802Z,21.50
2023-05-24T14:53:08.728Z,21.60
2023-05-24T14:55:36.611Z,21.60
2023-05-24T14:58:04.070Z,21.50
2023-05-24T15:00:31.117Z,21.40
2023-05-24T15:02:58.240Z,21.30
2023-05-24T15:05:25.294Z,21.30
2023-05-24T15:07:52.416Z,21.30
2023-05-24T15:10:19.483Z,21.30
2023-05-24T15:12:46.784Z,21.40
2023-05-24T15:15:13.829Z,21.30
2023-05-24T15:17:40.901Z,21.30
2023-05-24T15:20:09.136Z,21.50
2023-05-24T15:22:36.239Z,21.50
2023-05-24T15:25:03.480Z,21.70
2023-05-24T15:27:30.517Z,21.80
2023-05-24T15:29:59.314Z,21.80
2023-05-24T15:32:26.653Z,21.60
2023-05-24T15:34:53.909Z,21.60
2023-05-24T15:37:22.577Z,21.70
2023-05-24T15:39:53.307Z,21.60
2023-05-24T15:42:24.773Z,21.50
2023-05-24T15:44:52.178Z,21.50
2023-05-24T15:47:22.199Z,21.40
2023-05-24T15:49:50.094Z,21.30
2023-05-24T15:52:17.334Z,21.20
2023-05-24T15:54:44.525Z,21.30
2023-05-24T15:57:11.744Z,21.40
2023-05-24T15:59:39.485Z,21.50
2023-05-24T16:02:07.322Z,21.50
2023-05-24T16:04:34.494Z,21.60
2023-05-24T16:07:01.517Z,21.70
2023-05-24T16:09:28.506Z,21.60
2023-05-24T16:11:55.710Z,21.70
2023-05-24T16:14:22.841Z,21.80
2023-05-24T16:16:49.962Z,22.10
2023-05-24T16:19:17.111Z,22.20
2023-05-24T16:21:44.381Z,22.30
2023-05-24T16:24:11.436Z,22.40
2023-05-24T16:26:38.462Z,22.40
2023-05-24T16:29:07.216Z,22.40
2023-05-24T16:31:34.364Z,22.50
2023-05-24T16:34:01.532Z,22.40
2023-05-24T16:36:28.987Z,22.10
2023-05-24T16:38:56.083Z,22.00
2023-05-24T16:41:23.277Z,21.90
2023-05-24T16:43:50.345Z,21.80
2023-05-24T16:46:17.568Z,21.70
2023-05-24T16:48:45.236Z,21.70
2023-05-24T16:51:12.441Z,21.50
2023-05-24T16:53:39.622Z,21.40
2023-05-24T16:56:06.918Z,21.30
2023-05-24T16:58:34.062Z,21.30
2023-05-24T17:01:01.874Z,21.30
2023-05-24T17:03:30.619Z,21.20
2023-05-24T17:06:03.431Z,21.20
2023-05-24T17:08:36.017Z,21.10
2023-05-24T17:11:04.057Z,21.00
2023-05-24T17:13:31.666Z,21.00
2023-05-24T17:16:00.524Z,21.00
2023-05-24T17:18:28.558Z,21.00
2023-05-24T17:21:04.488Z,21.10
2023-05-24T17:23:33.668Z,21.20
2023-05-24T17:26:02.887Z,21.40
2023-05-24T17:28:30.354Z,21.70
2023-05-24T17:30:59.569Z,21.90
2023-05-24T17:33:28.366Z,22.00
2023-05-24T17:35:56.915Z,22.50
2023-05-24T17:38:26.918Z,22.90
2023-05-24T17:40:57.229Z,22.80
2023-05-24T17:43:28.859Z,23.00
2023-05-24T17:46:04.022Z,22.60
2023-05-24T17:48:35.355Z,22.30
2023-05-24T17:51:04.809Z,22.40
2023-05-24T17:53:35.544Z,22.50
2023-05-24T17:56:05.975Z,22.40
2023-05-24T17:58:36.918Z,22.10
2023-05-24T18:01:08.191Z,21.90
2023-05-24T18:03:37.513Z,21.50
2023-05-24T18:06:07.446Z,21.10
2023-05-24T18:08:42.939Z,20.90
2023-05-24T18:11:12.974Z,20.70
2023-05-24T18:13:42.104Z,20.60
2023-05-24T18:16:10.965Z,20.50
2023-05-24T18:18:38.529Z,20.50
2023-05-24T18:21:06.120Z,20.40
2023-05-24T18:23:37.549Z,20.40
2023-05-24T18:26:09.285Z,20.40
2023-05-24T18:28:37.764Z,20.40
2023-05-24T18:31:08.632Z,20.30
2023-05-24T18:33:36.315Z,20.20
2023-05-24T18:36:04.649Z,20.10
2023-05-24T18:38:34.505Z,20.10
2023-05-24T18:41:04.156Z,20.00
2023-05-24T18:43:33.041Z,19.90
2023-05-24T18:46:00.218Z,19.70
2023-05-24T18:48:27.403Z,19.60
2023-05-24T18:50:55.277Z,19.50
2023-05-24T18:53:22.411Z,19.50
2023-05-24T18:55:49.762Z,19.40
2023-05-24T18:58:16.992Z,19.40
2023-05-24T19:00:44.177Z,19.40
2023-05-24T19:03:12.362Z,19.40
2023-05-24T19:05:41.661Z,19.40
2023-05-24T19:08:10.686Z,19.30
2023-05-24T19:10:37.799Z,19.30
2023-05-24T19:13:06.165Z,19.30
2023-05-24T19:15:36.966Z,19.20
2023-05-24T19:18:04.506Z,19.20
2023-05-24T19:20:31.615Z,19.20
2023-05-24T19:22:59.339Z,19.10
2023-05-24T19:25:26.596Z,19.10
2023-05-24T19:30:23.766Z,19.00
2023-05-24T19:32:50.940Z,19.00
2023-05-24T19:35:18.088Z,19.00
2023-05-24T19:37:45.159Z,19.00
2023-05-24T19:40:12.590Z,18.90
2023-05-24T19:42:39.807Z,18.90
2023-05-24T19:45:07.626Z,18.80
2023-05-24T19:47:34.769Z,18.80
2023-05-24T19:50:01.930Z,18.70
2023-05-24T19:52:29.570Z,18.70
2023-05-24T19:54:56.933Z,18.60
2023-05-24T19:57:24.138Z,18.50
2023-05-24T19:59:51.268Z,18.40
2023-05-24T20:02:18.441Z,18.40
2023-05-24T20:04:45.513Z,18.30
2023-05-24T20:07:12.947Z,18.20
2023-05-24T20:09:41.763Z,18.10
2023-05-24T20:12:08.967Z,18.00
2023-05-24T20:14:36.099Z,17.90
2023-05-24T20:17:03.217Z,17.90
2023-05-24T20:19:30.386Z,17.80
2023-05-24T20:21:58.637Z,17.70
2023-05-24T20:24:25.738Z,17.70
2023-05-24T20:26:53.672Z,17.70
2023-05-24T20:29:21.430Z,17.60
2023-05-24T20:31:48.635Z,17.60
2023-05-24T20:34:15.788Z,17.60
2023-05-24T20:36:43.929Z,17.50
2023-05-24T20:39:12.315Z,17.50
2023-05-24T20:41:39.726Z,17.50
2023-05-24T20:44:06.847Z,17.40
2023-05-24T20:46:34.047Z,17.40
2023-05-24T20:49:01.694Z,17.40
2023-05-24T20:51:28.807Z,17.40
2023-05-24T20:53:56.081Z,17.40
2023-05-24T20:56:23.510Z,17.30
2023-05-24T20:58:53.245Z,17.30
2023-05-24T21:01:21.258Z,17.30
2023-05-24T21:03:48.627Z,17.20
2023-05-24T21:06:15.766Z,17.10
2023-05-24T21:08:43.733Z,17.00
2023-05-24T21:11:11.338Z,16.90
2023-05-24T21:13:38.666Z,16.90
2023-05-24T21:16:05.924Z,16.80
2023-05-24T21:18:33.648Z,16.70
2023-05-24T21:21:00.971Z,16.60
2023-05-24T21:23:28.042Z,16.60
2023-05-24T21:25:55.143Z,16.50
2023-05-24T21:28:22.292Z,16.50
2023-05-24T21:30:49.544Z,16.40
2023-05-24T21:33:17.096Z,16.40
2023-05-24T21:35:44.496Z,16.30
2023-05-24T21:38:12.003Z,16.30
2023-05-24T21:40:39.052Z,16.20
2023-05-24T21:43:06.908Z,16.20
2023-05-24T21:45:34.007Z,16.10
2023-05-24T21:48:01.655Z,16.10
2023-05-24T21:50:29.443Z,16.00
2023-05-24T21:52:56.644Z,15.90
2023-05-24T21:55:23.828Z,15.80
2023-05-24T21:57:52.426Z,15.80
2023-05-24T22:00:20.479Z,15.80
2023-05-24T22:02:48.120Z,15.70
2023-05-24T22:05:15.546Z,15.60
2023-05-24T22:07:42.645Z,15.50
2023-05-24T22:10:11.806Z,15.40
2023-05-24T22:12:39.593Z,15.40
2023-05-24T22:15:07.231Z,15.40
2023-05-24T22:17:37.024Z,15.30
2023-05-24T22:20:06.433Z,15.30
2023-05-24T22:22:33.652Z,15.20
2023-05-24T22:25:02.155Z,15.10
2023-05-24T22:27:29.806Z,15.10
2023-05-24T22:29:56.884Z,15.00
2023-05-24T22:32:23.956Z,15.00
2023-05-24T22:34:51.223Z,15.00
2023-05-24T22:37:18.374Z,14.90
2023-05-24T22:39:45.543Z,14.90
2023-05-24T22:42:12.685Z,15.00
2023-05-24T22:44:39.812Z,14.90
2023-05-24T22:47:08.421Z,14.80
2023-05-24T22:49:36.017Z,14.80
2023-05-24T22:52:03.160Z,14.80
2023-05-24T22:54:30.319Z,14.70
2023-05-24T22:56:57.922Z,14.70
2023-05-24T22:59:25.125Z,14.70
2023-05-24T23:01:52.605Z,14.70
2023-05-24T23:04:21.810Z,14.70
2023-05-24T23:06:52.851Z,14.70
2023-05-24T23:09:29.480Z,14.60
2023-05-24T23:11:58.746Z,14.60
2023-05-24T23:14:26.383Z,14.50
2023-05-24T23:16:53.529Z,14.50
2023-05-24T23:19:20.682Z,14.50
2023-05-24T23:21:47.886Z,14.50
2023-05-24T23:24:16.101Z,14.40
2023-05-24T23:26:43.789Z,14.30
2023-05-24T23:29:11.502Z,14.30
2023-05-24T23:31:38.762Z,14.20
2023-05-24T23:34:07.430Z,14.20
2023-05-24T23:36:34.510Z,14.20
2023-05-24T23:39:01.592Z,14.10
2023-05-24T23:41:28.655Z,14.10
2023-05-24T23:43:55.709Z,14.10
2023-05-24T23:46:22.853Z,14.00
2023-05-24T23:48:49.990Z,14.00
2023-05-24T23:51:17.123Z,13.90
2023-05-24T23:53:44.190Z,13.90
2023-05-24T23:56:11.414Z,13.80
2023-05-24T23:58:38.545Z,13.80
